Terminal Aerodrome Forecast
Issued by NWS

Home | Current Version | Previous Version | Text Only | Print | Product List | Glossary Off
Versions: 1 2 3 4 5 6 7 8 9 10 11 12 13 14 15 16 17 18 19 20 21 22 23 24 25 26 27 28 29 30 31 32 33 34 35 36 37 38 39 40

000
FTUS43 KLOT 191700
TAFORD
TAF
KORD 191737Z 1918/2024 25013G21KT P6SM VCSH BKN025
     FM192000 26012G20KT P6SM BKN035
     FM200100 28006KT P6SM SCT040
     FM200800 29003KT 4SM BR SCT250
     FM201400 29009KT P6SM SCT250=

USA.gov is the U.S. government's official web portal to all federal, state and local government web resources and services.